sensor_id;sensor_type;location;lat;lon;timestamp;P1;durP1;ratioP1;P2;durP2;ratioP2
84135;SDS011;74238;50.566;7.262;2023-12-22T00:01:02;4.63;;;1.42;;
84135;SDS011;74238;50.566;7.262;2023-12-22T00:03:28;5.57;;;1.63;;
84135;SDS011;74238;50.566;7.262;2023-12-22T00:05:53;2.63;;;1.10;;
84135;SDS011;74238;50.566;7.262;2023-12-22T00:08:19;15.02;;;1.90;;
84135;SDS011;74238;50.566;7.262;2023-12-22T00:10:44;7.53;;;2.15;;
84135;SDS011;74238;50.566;7.262;2023-12-22T00:13:09;4.57;;;1.15;;
84135;SDS011;74238;50.566;7.262;2023-12-22T00:15:35;7.40;;;1.52;;
84135;SDS011;74238;50.566;7.262;2023-12-22T00:18:00;5.15;;;1.50;;
84135;SDS011;74238;50.566;7.262;2023-12-22T00:20:25;6.20;;;1.75;;
84135;SDS011;74238;50.566;7.262;2023-12-22T00:22:50;5.68;;;1.30;;
84135;SDS011;74238;50.566;7.262;2023-12-22T00:25:16;4.97;;;1.50;;
84135;SDS011;74238;50.566;7.262;2023-12-22T00:27:41;6.78;;;1.42;;
84135;SDS011;74238;50.566;7.262;2023-12-22T00:30:06;2.35;;;0.80;;
84135;SDS011;74238;50.566;7.262;2023-12-22T00:32:32;4.28;;;1.00;;
84135;SDS011;74238;50.566;7.262;2023-12-22T00:34:58;4.35;;;1.02;;
84135;SDS011;74238;50.566;7.262;2023-12-22T00:37:23;2.83;;;1.00;;
84135;SDS011;74238;50.566;7.262;2023-12-22T00:39:48;1.98;;;0.80;;
84135;SDS011;74238;50.566;7.262;2023-12-22T00:42:14;2.67;;;1.00;;
84135;SDS011;74238;50.566;7.262;2023-12-22T00:44:39;2.58;;;1.23;;
84135;SDS011;74238;50.566;7.262;2023-12-22T00:47:05;1.95;;;1.60;;
84135;SDS011;74238;50.566;7.262;2023-12-22T00:49:30;1.70;;;0.90;;
84135;SDS011;74238;50.566;7.262;2023-12-22T00:51:56;0.68;;;0.60;;
84135;SDS011;74238;50.566;7.262;2023-12-22T00:54:23;1.52;;;0.70;;
84135;SDS011;74238;50.566;7.262;2023-12-22T00:56:50;3.30;;;0.68;;
84135;SDS011;74238;50.566;7.262;2023-12-22T00:59:15;1.00;;;0.75;;
84135;SDS011;74238;50.566;7.262;2023-12-22T01:01:41;3.83;;;1.00;;
84135;SDS011;74238;50.566;7.262;2023-12-22T01:04:06;2.72;;;0.88;;
84135;SDS011;74238;50.566;7.262;2023-12-22T01:06:31;4.50;;;1.10;;
84135;SDS011;74238;50.566;7.262;2023-12-22T01:08:56;2.67;;;0.80;;
84135;SDS011;74238;50.566;7.262;2023-12-22T01:11:22;3.25;;;0.80;;
84135;SDS011;74238;50.566;7.262;2023-12-22T01:13:47;2.80;;;1.38;;
84135;SDS011;74238;50.566;7.262;2023-12-22T01:16:12;6.88;;;1.40;;
84135;SDS011;74238;50.566;7.262;2023-12-22T01:18:38;4.43;;;1.20;;
84135;SDS011;74238;50.566;7.262;2023-12-22T01:21:07;2.08;;;1.10;;
84135;SDS011;74238;50.566;7.262;2023-12-22T01:23:32;5.20;;;1.25;;
84135;SDS011;74238;50.566;7.262;2023-12-22T01:25:58;5.35;;;1.48;;
84135;SDS011;74238;50.566;7.262;2023-12-22T01:28:23;5.20;;;1.08;;
84135;SDS011;74238;50.566;7.262;2023-12-22T01:30:49;3.80;;;1.27;;
84135;SDS011;74238;50.566;7.262;2023-12-22T01:33:14;2.03;;;1.30;;
84135;SDS011;74238;50.566;7.262;2023-12-22T01:35:39;4.07;;;1.20;;
84135;SDS011;74238;50.566;7.262;2023-12-22T01:38:05;5.93;;;1.50;;
84135;SDS011;74238;50.566;7.262;2023-12-22T01:40:30;3.65;;;1.10;;
84135;SDS011;74238;50.566;7.262;2023-12-22T01:42:55;5.43;;;1.30;;
84135;SDS011;74238;50.566;7.262;2023-12-22T01:45:20;2.53;;;1.30;;
84135;SDS011;74238;50.566;7.262;2023-12-22T01:47:46;5.95;;;1.40;;
84135;SDS011;74238;50.566;7.262;2023-12-22T01:50:12;2.47;;;1.08;;
84135;SDS011;74238;50.566;7.262;2023-12-22T01:52:39;2.45;;;1.10;;
84135;SDS011;74238;50.566;7.262;2023-12-22T01:55:06;2.47;;;0.90;;
84135;SDS011;74238;50.566;7.262;2023-12-22T01:57:35;4.38;;;1.38;;
84135;SDS011;74238;50.566;7.262;2023-12-22T02:00:01;5.88;;;1.58;;
84135;SDS011;74238;50.566;7.262;2023-12-22T02:02:27;6.60;;;1.58;;
84135;SDS011;74238;50.566;7.262;2023-12-22T02:04:53;6.13;;;1.30;;
84135;SDS011;74238;50.566;7.262;2023-12-22T02:07:18;7.15;;;1.30;;
84135;SDS011;74238;50.566;7.262;2023-12-22T02:09:44;5.25;;;1.60;;
84135;SDS011;74238;50.566;7.262;2023-12-22T02:12:09;3.97;;;1.15;;
84135;SDS011;74238;50.566;7.262;2023-12-22T02:14:35;2.53;;;1.13;;
84135;SDS011;74238;50.566;7.262;2023-12-22T02:17:02;1.88;;;1.38;;
84135;SDS011;74238;50.566;7.262;2023-12-22T02:19:42;5.57;;;1.10;;
84135;SDS011;74238;50.566;7.262;2023-12-22T02:24:35;3.05;;;1.00;;
84135;SDS011;74238;50.566;7.262;2023-12-22T02:27:24;4.55;;;1.50;;
84135;SDS011;74238;50.566;7.262;2023-12-22T02:29:54;4.28;;;1.30;;
84135;SDS011;74238;50.566;7.262;2023-12-22T02:32:34;4.85;;;1.50;;
84135;SDS011;74238;50.566;7.262;2023-12-22T02:35:02;4.40;;;1.27;;
84135;SDS011;74238;50.566;7.262;2023-12-22T02:37:32;4.28;;;1.17;;
84135;SDS011;74238;50.566;7.262;2023-12-22T02:40:00;8.57;;;1.42;;
84135;SDS011;74238;50.566;7.262;2023-12-22T02:44:55;6.88;;;2.20;;
84135;SDS011;74238;50.566;7.262;2023-12-22T02:47:24;3.72;;;1.35;;
84135;SDS011;74238;50.566;7.262;2023-12-22T02:49:49;6.38;;;1.70;;
84135;SDS011;74238;50.566;7.262;2023-12-22T02:52:15;6.47;;;1.70;;
84135;SDS011;74238;50.566;7.262;2023-12-22T02:54:40;5.90;;;1.80;;
84135;SDS011;74238;50.566;7.262;2023-12-22T02:57:08;5.35;;;1.45;;
84135;SDS011;74238;50.566;7.262;2023-12-22T02:59:34;3.95;;;1.50;;
84135;SDS011;74238;50.566;7.262;2023-12-22T03:01:59;3.90;;;1.40;;
84135;SDS011;74238;50.566;7.262;2023-12-22T03:04:25;8.02;;;2.03;;
84135;SDS011;74238;50.566;7.262;2023-12-22T03:06:51;7.75;;;1.75;;
84135;SDS011;74238;50.566;7.262;2023-12-22T03:09:16;4.05;;;1.50;;
84135;SDS011;74238;50.566;7.262;2023-12-22T03:11:41;5.78;;;1.75;;
84135;SDS011;74238;50.566;7.262;2023-12-22T03:14:07;5.18;;;1.55;;
84135;SDS011;74238;50.566;7.262;2023-12-22T03:16:32;8.65;;;2.20;;
84135;SDS011;74238;50.566;7.262;2023-12-22T03:18:58;9.77;;;2.00;;
84135;SDS011;74238;50.566;7.262;2023-12-22T03:21:23;8.70;;;1.63;;
84135;SDS011;74238;50.566;7.262;2023-12-22T03:23:48;9.27;;;2.10;;
84135;SDS011;74238;50.566;7.262;2023-12-22T03:26:13;11.60;;;2.22;;
84135;SDS011;74238;50.566;7.262;2023-12-22T03:28:39;4.85;;;2.13;;
84135;SDS011;74238;50.566;7.262;2023-12-22T03:31:04;7.32;;;2.03;;
84135;SDS011;74238;50.566;7.262;2023-12-22T03:33:31;12.20;;;2.15;;
84135;SDS011;74238;50.566;7.262;2023-12-22T03:35:57;8.30;;;2.10;;
84135;SDS011;74238;50.566;7.262;2023-12-22T03:38:22;9.52;;;1.85;;
84135;SDS011;74238;50.566;7.262;2023-12-22T03:40:47;8.93;;;2.35;;
84135;SDS011;74238;50.566;7.262;2023-12-22T03:43:13;9.30;;;2.20;;
84135;SDS011;74238;50.566;7.262;2023-12-22T03:45:38;8.77;;;2.05;;
84135;SDS011;74238;50.566;7.262;2023-12-22T03:48:03;9.57;;;2.05;;
84135;SDS011;74238;50.566;7.262;2023-12-22T03:50:29;8.85;;;2.08;;
84135;SDS011;74238;50.566;7.262;2023-12-22T03:52:54;6.90;;;2.15;;
84135;SDS011;74238;50.566;7.262;2023-12-22T03:55:20;9.88;;;2.65;;
84135;SDS011;74238;50.566;7.262;2023-12-22T03:57:45;8.38;;;2.20;;
84135;SDS011;74238;50.566;7.262;2023-12-22T04:00:10;10.73;;;2.35;;
84135;SDS011;74238;50.566;7.262;2023-12-22T04:02:36;11.73;;;2.88;;
84135;SDS011;74238;50.566;7.262;2023-12-22T04:05:01;11.73;;;2.35;;
84135;SDS011;74238;50.566;7.262;2023-12-22T04:07:27;13.95;;;2.80;;
84135;SDS011;74238;50.566;7.262;2023-12-22T04:09:53;13.77;;;2.53;;
84135;SDS011;74238;50.566;7.262;2023-12-22T04:12:18;6.60;;;1.80;;
84135;SDS011;74238;50.566;7.262;2023-12-22T04:14:43;8.68;;;1.75;;
84135;SDS011;74238;50.566;7.262;2023-12-22T04:17:09;6.70;;;1.75;;
84135;SDS011;74238;50.566;7.262;2023-12-22T04:19:35;7.82;;;1.63;;
84135;SDS011;74238;50.566;7.262;2023-12-22T04:22:01;2.75;;;1.38;;
84135;SDS011;74238;50.566;7.262;2023-12-22T04:24:26;11.52;;;2.05;;
84135;SDS011;74238;50.566;7.262;2023-12-22T04:26:51;4.18;;;1.45;;
84135;SDS011;74238;50.566;7.262;2023-12-22T04:29:17;5.75;;;1.58;;
84135;SDS011;74238;50.566;7.262;2023-12-22T04:31:42;2.58;;;1.13;;
84135;SDS011;74238;50.566;7.262;2023-12-22T04:34:07;9.48;;;1.88;;
84135;SDS011;74238;50.566;7.262;2023-12-22T04:36:33;7.45;;;1.48;;
84135;SDS011;74238;50.566;7.262;2023-12-22T04:38:58;6.53;;;1.30;;
84135;SDS011;74238;50.566;7.262;2023-12-22T04:41:23;8.43;;;1.65;;
84135;SDS011;74238;50.566;7.262;2023-12-22T04:43:49;5.18;;;1.73;;
84135;SDS011;74238;50.566;7.262;2023-12-22T04:46:14;8.68;;;1.50;;
84135;SDS011;74238;50.566;7.262;2023-12-22T04:48:39;8.52;;;1.27;;
84135;SDS011;74238;50.566;7.262;2023-12-22T04:51:05;8.73;;;2.00;;
84135;SDS011;74238;50.566;7.262;2023-12-22T04:53:30;6.60;;;1.63;;
84135;SDS011;74238;50.566;7.262;2023-12-22T04:55:55;8.52;;;1.70;;
84135;SDS011;74238;50.566;7.262;2023-12-22T04:58:21;5.57;;;1.80;;
84135;SDS011;74238;50.566;7.262;2023-12-22T05:00:47;5.28;;;1.65;;
84135;SDS011;74238;50.566;7.262;2023-12-22T05:03:12;6.88;;;2.22;;
84135;SDS011;74238;50.566;7.262;2023-12-22T05:05:38;8.73;;;2.08;;
84135;SDS011;74238;50.566;7.262;2023-12-22T05:08:03;8.13;;;1.70;;
84135;SDS011;74238;50.566;7.262;2023-12-22T05:10:29;7.18;;;1.70;;
84135;SDS011;74238;50.566;7.262;2023-12-22T05:12:54;9.45;;;2.58;;
84135;SDS011;74238;50.566;7.262;2023-12-22T05:15:20;8.65;;;2.30;;
84135;SDS011;74238;50.566;7.262;2023-12-22T05:17:45;8.00;;;2.05;;
84135;SDS011;74238;50.566;7.262;2023-12-22T05:20:10;10.70;;;2.40;;
84135;SDS011;74238;50.566;7.262;2023-12-22T05:22:36;9.43;;;1.90;;
84135;SDS011;74238;50.566;7.262;2023-12-22T05:25:01;10.68;;;2.40;;
84135;SDS011;74238;50.566;7.262;2023-12-22T05:27:27;6.78;;;1.75;;
84135;SDS011;74238;50.566;7.262;2023-12-22T05:29:52;7.25;;;2.28;;
84135;SDS011;74238;50.566;7.262;2023-12-22T05:32:18;9.27;;;2.35;;
84135;SDS011;74238;50.566;7.262;2023-12-22T05:34:43;3.70;;;1.40;;
84135;SDS011;74238;50.566;7.262;2023-12-22T05:37:08;7.38;;;1.50;;
84135;SDS011;74238;50.566;7.262;2023-12-22T05:39:33;9.27;;;2.00;;
84135;SDS011;74238;50.566;7.262;2023-12-22T05:41:59;8.48;;;2.10;;
84135;SDS011;74238;50.566;7.262;2023-12-22T05:44:24;6.65;;;1.88;;
84135;SDS011;74238;50.566;7.262;2023-12-22T05:46:54;7.60;;;2.22;;
84135;SDS011;74238;50.566;7.262;2023-12-22T05:49:19;6.93;;;1.67;;
84135;SDS011;74238;50.566;7.262;2023-12-22T05:51:45;6.13;;;1.48;;
84135;SDS011;74238;50.566;7.262;2023-12-22T05:54:11;7.45;;;2.17;;
84135;SDS011;74238;50.566;7.262;2023-12-22T05:56:36;9.02;;;1.77;;
84135;SDS011;74238;50.566;7.262;2023-12-22T05:59:02;13.73;;;2.08;;
84135;SDS011;74238;50.566;7.262;2023-12-22T06:01:28;6.07;;;1.85;;
84135;SDS011;74238;50.566;7.262;2023-12-22T06:03:53;8.82;;;2.28;;
84135;SDS011;74238;50.566;7.262;2023-12-22T06:06:19;7.38;;;2.35;;
84135;SDS011;74238;50.566;7.262;2023-12-22T06:08:45;10.05;;;2.45;;
84135;SDS011;74238;50.566;7.262;2023-12-22T06:11:10;13.52;;;1.90;;
84135;SDS011;74238;50.566;7.262;2023-12-22T06:13:35;10.10;;;2.20;;
84135;SDS011;74238;50.566;7.262;2023-12-22T06:16:01;7.03;;;1.75;;
84135;SDS011;74238;50.566;7.262;2023-12-22T06:18:26;6.90;;;2.08;;
84135;SDS011;74238;50.566;7.262;2023-12-22T06:20:52;3.92;;;1.60;;
84135;SDS011;74238;50.566;7.262;2023-12-22T06:23:17;11.05;;;3.03;;
84135;SDS011;74238;50.566;7.262;2023-12-22T06:25:43;10.38;;;2.15;;
84135;SDS011;74238;50.566;7.262;2023-12-22T06:28:09;10.82;;;2.03;;
84135;SDS011;74238;50.566;7.262;2023-12-22T06:30:35;12.07;;;3.00;;
84135;SDS011;74238;50.566;7.262;2023-12-22T06:33:00;10.23;;;1.92;;
84135;SDS011;74238;50.566;7.262;2023-12-22T06:35:26;6.68;;;2.35;;
84135;SDS011;74238;50.566;7.262;2023-12-22T06:37:51;5.00;;;1.77;;
84135;SDS011;74238;50.566;7.262;2023-12-22T06:40:17;5.03;;;1.63;;
84135;SDS011;74238;50.566;7.262;2023-12-22T06:42:43;7.25;;;1.85;;
84135;SDS011;74238;50.566;7.262;2023-12-22T06:45:09;14.95;;;3.00;;
84135;SDS011;74238;50.566;7.262;2023-12-22T06:47:35;10.18;;;2.70;;
84135;SDS011;74238;50.566;7.262;2023-12-22T06:50:01;5.63;;;1.60;;
84135;SDS011;74238;50.566;7.262;2023-12-22T06:52:26;7.97;;;1.85;;
84135;SDS011;74238;50.566;7.262;2023-12-22T06:54:51;6.25;;;1.95;;
84135;SDS011;74238;50.566;7.262;2023-12-22T06:57:17;5.97;;;1.75;;
84135;SDS011;74238;50.566;7.262;2023-12-22T06:59:42;5.70;;;1.73;;
84135;SDS011;74238;50.566;7.262;2023-12-22T07:02:08;4.95;;;1.65;;
84135;SDS011;74238;50.566;7.262;2023-12-22T07:07:33;5.20;;;1.20;;
84135;SDS011;74238;50.566;7.262;2023-12-22T07:09:58;3.67;;;1.40;;
84135;SDS011;74238;50.566;7.262;2023-12-22T07:12:23;6.38;;;1.65;;
84135;SDS011;74238;50.566;7.262;2023-12-22T07:14:49;4.80;;;1.38;;
84135;SDS011;74238;50.566;7.262;2023-12-22T07:17:14;2.42;;;1.10;;
84135;SDS011;74238;50.566;7.262;2023-12-22T07:19:40;4.53;;;1.48;;
84135;SDS011;74238;50.566;7.262;2023-12-22T07:22:05;8.05;;;1.63;;
84135;SDS011;74238;50.566;7.262;2023-12-22T07:24:31;4.85;;;0.93;;
84135;SDS011;74238;50.566;7.262;2023-12-22T07:26:56;2.45;;;1.20;;
84135;SDS011;74238;50.566;7.262;2023-12-22T07:29:21;3.40;;;1.95;;
84135;SDS011;74238;50.566;7.262;2023-12-22T07:31:47;5.28;;;1.08;;
84135;SDS011;74238;50.566;7.262;2023-12-22T07:34:12;4.35;;;1.42;;
84135;SDS011;74238;50.566;7.262;2023-12-22T07:36:37;5.38;;;1.23;;
84135;SDS011;74238;50.566;7.262;2023-12-22T07:39:03;2.83;;;1.30;;
84135;SDS011;74238;50.566;7.262;2023-12-22T07:41:28;3.63;;;1.00;;
84135;SDS011;74238;50.566;7.262;2023-12-22T07:43:54;1.95;;;1.10;;
84135;SDS011;74238;50.566;7.262;2023-12-22T07:46:19;3.25;;;1.38;;
84135;SDS011;74238;50.566;7.262;2023-12-22T07:48:45;2.65;;;1.30;;
84135;SDS011;74238;50.566;7.262;2023-12-22T07:51:11;2.60;;;1.30;;
84135;SDS011;74238;50.566;7.262;2023-12-22T07:53:37;2.40;;;1.00;;
84135;SDS011;74238;50.566;7.262;2023-12-22T07:56:03;4.72;;;1.77;;
84135;SDS011;74238;50.566;7.262;2023-12-22T07:58:30;5.00;;;1.10;;
84135;SDS011;74238;50.566;7.262;2023-12-22T08:00:56;5.07;;;1.48;;
84135;SDS011;74238;50.566;7.262;2023-12-22T08:03:23;6.65;;;1.63;;
84135;SDS011;74238;50.566;7.262;2023-12-22T08:05:48;3.58;;;1.40;;
84135;SDS011;74238;50.566;7.262;2023-12-22T08:08:13;5.90;;;1.60;;
84135;SDS011;74238;50.566;7.262;2023-12-22T08:10:39;3.00;;;1.80;;
84135;SDS011;74238;50.566;7.262;2023-12-22T08:13:04;8.75;;;1.73;;
84135;SDS011;74238;50.566;7.262;2023-12-22T08:15:29;7.97;;;2.20;;
84135;SDS011;74238;50.566;7.262;2023-12-22T08:17:57;9.43;;;2.88;;
84135;SDS011;74238;50.566;7.262;2023-12-22T08:20:22;10.00;;;2.33;;
84135;SDS011;74238;50.566;7.262;2023-12-22T08:22:48;5.65;;;2.22;;
84135;SDS011;74238;50.566;7.262;2023-12-22T08:27:40;10.80;;;2.05;;
84135;SDS011;74238;50.566;7.262;2023-12-22T08:30:06;13.85;;;2.92;;
84135;SDS011;74238;50.566;7.262;2023-12-22T08:32:32;11.75;;;2.78;;
84135;SDS011;74238;50.566;7.262;2023-12-22T08:34:57;12.68;;;3.15;;
84135;SDS011;74238;50.566;7.262;2023-12-22T08:37:23;12.25;;;2.95;;
84135;SDS011;74238;50.566;7.262;2023-12-22T08:39:48;11.85;;;3.15;;
84135;SDS011;74238;50.566;7.262;2023-12-22T08:42:15;12.25;;;2.47;;
84135;SDS011;74238;50.566;7.262;2023-12-22T08:44:41;9.98;;;2.58;;
84135;SDS011;74238;50.566;7.262;2023-12-22T08:47:07;10.98;;;2.67;;
84135;SDS011;74238;50.566;7.262;2023-12-22T08:49:33;10.45;;;2.30;;
84135;SDS011;74238;50.566;7.262;2023-12-22T08:51:59;13.80;;;3.10;;
84135;SDS011;74238;50.566;7.262;2023-12-22T08:54:24;13.57;;;3.38;;
84135;SDS011;74238;50.566;7.262;2023-12-22T08:56:51;13.77;;;2.67;;
84135;SDS011;74238;50.566;7.262;2023-12-22T08:59:17;12.82;;;3.42;;
84135;SDS011;74238;50.566;7.262;2023-12-22T09:01:42;10.60;;;2.25;;
84135;SDS011;74238;50.566;7.262;2023-12-22T09:04:09;10.43;;;2.42;;
84135;SDS011;74238;50.566;7.262;2023-12-22T09:06:35;7.90;;;2.50;;
84135;SDS011;74238;50.566;7.262;2023-12-22T09:09:01;9.05;;;2.45;;
84135;SDS011;74238;50.566;7.262;2023-12-22T09:11:26;11.52;;;2.85;;
84135;SDS011;74238;50.566;7.262;2023-12-22T09:13:51;10.00;;;2.38;;
84135;SDS011;74238;50.566;7.262;2023-12-22T09:16:20;9.73;;;2.33;;
84135;SDS011;74238;50.566;7.262;2023-12-22T09:18:48;8.60;;;2.75;;
84135;SDS011;74238;50.566;7.262;2023-12-22T09:21:14;12.98;;;2.97;;
84135;SDS011;74238;50.566;7.262;2023-12-22T09:23:40;11.65;;;2.38;;
84135;SDS011;74238;50.566;7.262;2023-12-22T09:26:09;9.82;;;3.30;;
84135;SDS011;74238;50.566;7.262;2023-12-22T09:28:35;12.85;;;3.00;;
84135;SDS011;74238;50.566;7.262;2023-12-22T09:31:00;11.20;;;2.67;;
84135;SDS011;74238;50.566;7.262;2023-12-22T09:33:25;11.80;;;3.08;;
84135;SDS011;74238;50.566;7.262;2023-12-22T09:35:50;12.93;;;3.20;;
84135;SDS011;74238;50.566;7.262;2023-12-22T09:38:16;12.52;;;3.35;;
84135;SDS011;74238;50.566;7.262;2023-12-22T09:40:41;7.35;;;2.95;;
84135;SDS011;74238;50.566;7.262;2023-12-22T09:43:07;15.32;;;3.05;;
84135;SDS011;74238;50.566;7.262;2023-12-22T09:45:33;9.88;;;3.10;;
84135;SDS011;74238;50.566;7.262;2023-12-22T09:47:59;8.27;;;2.20;;
84135;SDS011;74238;50.566;7.262;2023-12-22T09:50:26;7.70;;;2.08;;
84135;SDS011;74238;50.566;7.262;2023-12-22T09:55:17;7.57;;;2.97;;
84135;SDS011;74238;50.566;7.262;2023-12-22T09:57:46;10.85;;;2.00;;
84135;SDS011;74238;50.566;7.262;2023-12-22T10:00:12;7.05;;;2.17;;
84135;SDS011;74238;50.566;7.262;2023-12-22T10:02:41;8.27;;;1.83;;
84135;SDS011;74238;50.566;7.262;2023-12-22T10:05:08;9.88;;;1.83;;
84135;SDS011;74238;50.566;7.262;2023-12-22T10:07:33;9.93;;;1.70;;
84135;SDS011;74238;50.566;7.262;2023-12-22T10:10:00;7.25;;;2.35;;
84135;SDS011;74238;50.566;7.262;2023-12-22T10:12:26;5.70;;;1.60;;
84135;SDS011;74238;50.566;7.262;2023-12-22T10:14:54;7.00;;;1.80;;
84135;SDS011;74238;50.566;7.262;2023-12-22T10:17:20;3.90;;;1.40;;
84135;SDS011;74238;50.566;7.262;2023-12-22T10:19:45;5.35;;;1.55;;
84135;SDS011;74238;50.566;7.262;2023-12-22T10:22:10;6.97;;;1.38;;
84135;SDS011;74238;50.566;7.262;2023-12-22T10:24:45;4.35;;;1.05;;
84135;SDS011;74238;50.566;7.262;2023-12-22T10:27:12;5.63;;;1.30;;
84135;SDS011;74238;50.566;7.262;2023-12-22T10:29:39;4.40;;;1.73;;
84135;SDS011;74238;50.566;7.262;2023-12-22T10:32:07;4.32;;;1.30;;
84135;SDS011;74238;50.566;7.262;2023-12-22T10:34:36;2.75;;;1.10;;
84135;SDS011;74238;50.566;7.262;2023-12-22T10:37:02;5.07;;;1.23;;
84135;SDS011;74238;50.566;7.262;2023-12-22T10:39:28;1.90;;;1.10;;
84135;SDS011;74238;50.566;7.262;2023-12-22T10:41:57;3.33;;;1.05;;
84135;SDS011;74238;50.566;7.262;2023-12-22T10:44:27;2.22;;;1.20;;
84135;SDS011;74238;50.566;7.262;2023-12-22T10:46:54;4.90;;;1.05;;
84135;SDS011;74238;50.566;7.262;2023-12-22T10:49:20;2.72;;;1.00;;
84135;SDS011;74238;50.566;7.262;2023-12-22T10:51:46;2.65;;;1.02;;
84135;SDS011;74238;50.566;7.262;2023-12-22T10:54:12;4.03;;;1.10;;
84135;SDS011;74238;50.566;7.262;2023-12-22T10:56:37;3.22;;;0.90;;
84135;SDS011;74238;50.566;7.262;2023-12-22T10:59:04;2.78;;;0.93;;
84135;SDS011;74238;50.566;7.262;2023-12-22T11:01:32;3.00;;;1.10;;
84135;SDS011;74238;50.566;7.262;2023-12-22T11:04:08;2.38;;;1.00;;
84135;SDS011;74238;50.566;7.262;2023-12-22T11:06:38;1.52;;;0.88;;
84135;SDS011;74238;50.566;7.262;2023-12-22T11:09:07;3.30;;;1.10;;
84135;SDS011;74238;50.566;7.262;2023-12-22T11:11:38;4.07;;;1.05;;
84135;SDS011;74238;50.566;7.262;2023-12-22T11:14:05;2.42;;;1.00;;
84135;SDS011;74238;50.566;7.262;2023-12-22T11:16:32;2.88;;;1.10;;
84135;SDS011;74238;50.566;7.262;2023-12-22T11:18:59;1.30;;;1.13;;
84135;SDS011;74238;50.566;7.262;2023-12-22T11:21:26;1.08;;;0.73;;
84135;SDS011;74238;50.566;7.262;2023-12-22T11:23:53;1.92;;;0.95;;
84135;SDS011;74238;50.566;7.262;2023-12-22T11:26:20;2.53;;;1.45;;
84135;SDS011;74238;50.566;7.262;2023-12-22T11:28:48;4.57;;;1.10;;
84135;SDS011;74238;50.566;7.262;2023-12-22T11:31:18;2.20;;;1.00;;
84135;SDS011;74238;50.566;7.262;2023-12-22T11:33:48;1.38;;;0.65;;
84135;SDS011;74238;50.566;7.262;2023-12-22T11:36:16;1.30;;;0.85;;
84135;SDS011;74238;50.566;7.262;2023-12-22T11:38:46;1.77;;;1.10;;
84135;SDS011;74238;50.566;7.262;2023-12-22T11:41:21;1.73;;;1.05;;
84135;SDS011;74238;50.566;7.262;2023-12-22T11:43:50;2.47;;;1.10;;
84135;SDS011;74238;50.566;7.262;2023-12-22T11:46:18;1.77;;;0.90;;
84135;SDS011;74238;50.566;7.262;2023-12-22T11:48:47;2.33;;;1.00;;
84135;SDS011;74238;50.566;7.262;2023-12-22T11:53:43;1.70;;;1.05;;
84135;SDS011;74238;50.566;7.262;2023-12-22T11:56:10;1.80;;;1.00;;
84135;SDS011;74238;50.566;7.262;2023-12-22T11:58:41;1.75;;;1.00;;
84135;SDS011;74238;50.566;7.262;2023-12-22T12:01:24;2.08;;;1.00;;
84135;SDS011;74238;50.566;7.262;2023-12-22T12:03:54;1.35;;;0.90;;
84135;SDS011;74238;50.566;7.262;2023-12-22T12:06:22;1.35;;;0.93;;
84135;SDS011;74238;50.566;7.262;2023-12-22T12:08:56;1.90;;;1.15;;
84135;SDS011;74238;50.566;7.262;2023-12-22T12:11:22;2.25;;;0.95;;
84135;SDS011;74238;50.566;7.262;2023-12-22T12:13:49;1.38;;;0.95;;
84135;SDS011;74238;50.566;7.262;2023-12-22T12:18:44;2.63;;;1.30;;
84135;SDS011;74238;50.566;7.262;2023-12-22T12:21:10;1.65;;;0.93;;
84135;SDS011;74238;50.566;7.262;2023-12-22T12:23:36;0.70;;;0.70;;
84135;SDS011;74238;50.566;7.262;2023-12-22T12:26:02;1.20;;;0.98;;
84135;SDS011;74238;50.566;7.262;2023-12-22T12:28:29;2.95;;;1.52;;
84135;SDS011;74238;50.566;7.262;2023-12-22T12:30:59;1.90;;;1.00;;
84135;SDS011;74238;50.566;7.262;2023-12-22T12:33:26;1.80;;;1.13;;
84135;SDS011;74238;50.566;7.262;2023-12-22T12:35:56;2.90;;;1.30;;
84135;SDS011;74238;50.566;7.262;2023-12-22T12:38:23;2.33;;;1.25;;
84135;SDS011;74238;50.566;7.262;2023-12-22T12:41:01;1.77;;;1.30;;
84135;SDS011;74238;50.566;7.262;2023-12-22T12:43:30;3.50;;;1.10;;
84135;SDS011;74238;50.566;7.262;2023-12-22T12:45:55;1.85;;;1.08;;
84135;SDS011;74238;50.566;7.262;2023-12-22T12:48:20;2.45;;;1.20;;
84135;SDS011;74238;50.566;7.262;2023-12-22T12:50:47;2.10;;;1.25;;
84135;SDS011;74238;50.566;7.262;2023-12-22T12:53:12;1.65;;;1.05;;
84135;SDS011;74238;50.566;7.262;2023-12-22T12:55:38;2.13;;;1.10;;
84135;SDS011;74238;50.566;7.262;2023-12-22T12:58:03;3.38;;;1.05;;
84135;SDS011;74238;50.566;7.262;2023-12-22T13:00:29;1.98;;;1.30;;
84135;SDS011;74238;50.566;7.262;2023-12-22T13:02:59;2.25;;;1.50;;
84135;SDS011;74238;50.566;7.262;2023-12-22T13:05:27;5.50;;;1.70;;
84135;SDS011;74238;50.566;7.262;2023-12-22T13:08:05;2.50;;;1.15;;
84135;SDS011;74238;50.566;7.262;2023-12-22T13:10:40;2.53;;;1.30;;
84135;SDS011;74238;50.566;7.262;2023-12-22T13:13:06;3.05;;;1.50;;
84135;SDS011;74238;50.566;7.262;2023-12-22T13:15:32;2.92;;;1.42;;
84135;SDS011;74238;50.566;7.262;2023-12-22T13:17:57;2.35;;;1.85;;
84135;SDS011;74238;50.566;7.262;2023-12-22T13:20:23;1.92;;;1.38;;
84135;SDS011;74238;50.566;7.262;2023-12-22T13:22:49;2.60;;;1.50;;
84135;SDS011;74238;50.566;7.262;2023-12-22T13:25:14;4.15;;;1.77;;
84135;SDS011;74238;50.566;7.262;2023-12-22T13:27:46;7.35;;;2.30;;
84135;SDS011;74238;50.566;7.262;2023-12-22T13:32:38;4.70;;;1.83;;
84135;SDS011;74238;50.566;7.262;2023-12-22T13:35:04;5.90;;;1.60;;
84135;SDS011;74238;50.566;7.262;2023-12-22T13:37:29;3.03;;;1.50;;
84135;SDS011;74238;50.566;7.262;2023-12-22T13:39:55;5.20;;;2.03;;
84135;SDS011;74238;50.566;7.262;2023-12-22T13:42:21;3.75;;;1.50;;
84135;SDS011;74238;50.566;7.262;2023-12-22T13:44:47;4.47;;;1.92;;
84135;SDS011;74238;50.566;7.262;2023-12-22T13:47:17;3.53;;;1.20;;
84135;SDS011;74238;50.566;7.262;2023-12-22T13:49:43;3.08;;;1.70;;
84135;SDS011;74238;50.566;7.262;2023-12-22T13:52:24;1.83;;;1.25;;
84135;SDS011;74238;50.566;7.262;2023-12-22T13:54:50;2.45;;;1.05;;
84135;SDS011;74238;50.566;7.262;2023-12-22T13:57:22;2.70;;;1.27;;
84135;SDS011;74238;50.566;7.262;2023-12-22T13:59:47;2.08;;;1.23;;
84135;SDS011;74238;50.566;7.262;2023-12-22T14:02:13;3.22;;;1.05;;
84135;SDS011;74238;50.566;7.262;2023-12-22T14:04:39;3.40;;;1.50;;
84135;SDS011;74238;50.566;7.262;2023-12-22T14:07:04;3.13;;;0.98;;
84135;SDS011;74238;50.566;7.262;2023-12-22T14:09:29;1.95;;;1.02;;
84135;SDS011;74238;50.566;7.262;2023-12-22T14:11:58;4.18;;;1.48;;
84135;SDS011;74238;50.566;7.262;2023-12-22T14:14:23;2.90;;;1.35;;
84135;SDS011;74238;50.566;7.262;2023-12-22T14:16:49;1.58;;;1.20;;
84135;SDS011;74238;50.566;7.262;2023-12-22T14:19:14;2.90;;;1.13;;
84135;SDS011;74238;50.566;7.262;2023-12-22T14:21:39;3.08;;;1.23;;
84135;SDS011;74238;50.566;7.262;2023-12-22T14:24:05;2.70;;;1.80;;
84135;SDS011;74238;50.566;7.262;2023-12-22T14:26:30;4.47;;;2.47;;
84135;SDS011;74238;50.566;7.262;2023-12-22T14:28:55;3.78;;;1.67;;
84135;SDS011;74238;50.566;7.262;2023-12-22T14:31:21;2.28;;;1.10;;
84135;SDS011;74238;50.566;7.262;2023-12-22T14:33:46;2.25;;;1.00;;
84135;SDS011;74238;50.566;7.262;2023-12-22T14:36:12;1.67;;;0.95;;
84135;SDS011;74238;50.566;7.262;2023-12-22T14:38:37;3.40;;;1.20;;
84135;SDS011;74238;50.566;7.262;2023-12-22T14:41:03;2.67;;;1.10;;
84135;SDS011;74238;50.566;7.262;2023-12-22T14:43:28;2.72;;;0.98;;
84135;SDS011;74238;50.566;7.262;2023-12-22T14:45:53;2.25;;;1.30;;
84135;SDS011;74238;50.566;7.262;2023-12-22T14:48:19;1.50;;;1.10;;
84135;SDS011;74238;50.566;7.262;2023-12-22T14:50:44;5.00;;;1.40;;
84135;SDS011;74238;50.566;7.262;2023-12-22T14:53:09;2.38;;;1.20;;
84135;SDS011;74238;50.566;7.262;2023-12-22T14:55:35;2.95;;;1.60;;
84135;SDS011;74238;50.566;7.262;2023-12-22T14:58:00;3.40;;;1.23;;
84135;SDS011;74238;50.566;7.262;2023-12-22T15:00:25;1.83;;;0.90;;